Tiempo atmosférico en la estación meteorológica de Jimena de la Frontera, Cádiz (50 m.)



Fecha
DESCASC
Temp. máxima en grados centígrados (hora)
DESCASC
Temp. mínima en grados centígrados (hora)
DESCASC
Temp. media en grados centígrados
DESCASC
Racha de viento máxima en m/sg (hora)
DESCASC
Velocidad máxima media en intervalos de 10 minutos(hora)
DESCASC
Precipitaciones diarias en mm
DESCASC
Precipitaciones de 00:00 a 06:00 en mm
DESCASC
Precipitaciones de 06:00 a 12:00 en mm
DESCASC
Precipitaciones de 12:00 a 18:00 en mm
DESCASC
Precipitaciones de 18:00 a 24:00 en mm
DESCASC
14-12-2019 17.9 (13:50) 12.1 (22:40) 15 12.5 (14:40) 8.06 (14:40) 0 0 0 0 0
13-12-2019 17.8 (13:50) 13.8 (02:30) 15.8 10.28 (00:30) 5.83 (15:40) 1 1 0 0 0
12-12-2019 16 (14:50) 7.6 (01:30) 11.8 14.17 (14:00) 8.06 (12:30) 0 0 0 0 0
11-12-2019 19.4 (13:50) 5.7 (00:00) 12.5 9.17 (12:20) 5.28 (12:20) 0 0 0 0 0
10-12-2019 20.6 (14:30) 2.3 (00:00) 11.5 7.5 (16:10) 4.44 (16:40) 0 0 0 0 0
09-12-2019 21.7 (14:30) 9.3 (00:00) 15.5 8.33 (11:40) 4.72 (11:10) 0 0 0 0 0
08-12-2019 20.2 (14:50) 3.8 (00:00) 12 8.33 (15:40) 5 (15:10) 0 0 0 0 0
07-12-2019 19.4 (14:00) 7.7 (00:00) 13.5 6.39 (14:00) 3.61 (14:20) 0 0 0 0 0
06-12-2019 18.5 (13:40) 8.2 (00:00) 13.3 12.5 (12:00) 7.5 (12:10) 0 0 0 0 0
05-12-2019 15.7 (13:40) 5 (00:00) 10.3 9.44 (17:50) 5 (14:50) 0 0 0 0 0
04-12-2019 17.3 (13:20) 8.4 (00:00) 12.8 10.28 (14:20) 6.39 (14:20) 0 0 0 0 0
03-12-2019 16.5 (14:50) 10.5 (00:00) 13.5 6.11 (01:40) 2.5 (01:50) 0.4 0.2 0.2 0 0
02-12-2019 15 (13:50) 8.2 (00:00) 11.6 10.56 (14:20) 6.39 (14:20) 5.8 0.2 0 3.4 2.2
01-12-2019 18.2 (14:40) 10.3 (00:00) 14.3 9.17 (15:00) 5 (15:00) 2.2 0.2 0 1.2 0.8
30-11-2019 23.2 (15:10) 6.4 (00:00) 14.8 7.5 (16:40) 4.72 (16:50) 0 0 0 0 0
29-11-2019 23.8 (14:20) 6.5 (00:00) 15.1 6.39 (16:20) 3.89 (16:20) 0 0 0 0 0
28-11-2019 21.1 (14:20) 8.2 (00:00) 14.7 9.17 (12:20) 5 (13:00) 0 0 0 0 0
27-11-2019 20.7 (13:00) 10.9 (00:00) 15.8 8.33 (11:30) 4.44 (11:30) 0.4 0.4 0 0 0
26-11-2019 22.2 (13:00) 11.7 (00:00) 17 8.33 (14:30) 5.56 (13:50) 0 0 0 0 0
25-11-2019 18.7 (14:10) 8.5 (00:00) 13.6 8.89 (13:00) 5 (13:20) 0 0 0 0 0
24-11-2019 17.2 (14:00) 5.5 (00:00) 11.4 11.11 (14:40) 5.83 (14:50) 0 0 0 0 0
23-11-2019 16.9 (13:40) 8.7 (00:00) 12.8 16.11 (00:50) 8.61 (00:50) 0.6 0 0.6 0 0
22-11-2019 19.4 (16:10) 13.6 (00:00) 16.5 19.17 (17:20) 10.28 (17:40) 40.8 6.2 19.8 1.6 13.2
21-11-2019 15.7 (13:50) 9.1 (00:00) 12.4 4.17 (09:40) 1.94 (02:20) 48.6 5.6 24.8 14 4.2
20-11-2019 13.1 (15:30) 3.1 (00:00) 8.1 3.89 (15:10) 1.94 (18:20) 2.4 0 1 1.4 0
19-11-2019 18 (14:50) 3.2 (00:00) 10.6 7.22 (17:00) 4.72 (17:00) 0 0 0 0 0
18-11-2019 16.3 (15:50) 5.5 (00:00) 10.9 13.89 (02:30) 6.94 (05:10) 2 2 0 0 0
17-11-2019 15.9 (22:50) 1.5 (00:00) 8.7 10.56 (23:59) 5.83 (23:59) 4.8 0 0 0.4 4.4
16-11-2019 15.9 (14:50) 1.2 (00:00) 8.5 10 (12:00) 6.11 (15:40) 0 0 0 0 0
15-11-2019 14.4 (15:10) 6.1 (00:00) 10.2 12.22 (07:20) 6.67 (12:20) 0 0 0 0 0

Gráficas

Temp. máximas Temp. mínimas Temp. medias Precipitaciones Rachas de viento máximas Velocidades máximas media en intervalos de 10 minutos

Datos horarios

Fecha y hora oficial Temperatura (ºC) Velocidad del viento (km/h) Dirección del viento Racha (km/h) Dirección de racha Precipitación (mm) Presión (hPa) Tendencia (hPa) Humedad (%)
2019-12-14 23:00:00 12.3 6 Noroeste 15 Noroeste 0 -- -- 69
2019-12-14 22:00:00 12.8 5 Norte 22 Noroeste 0 -- -- 67
2019-12-14 21:00:00 13.2 7 Noroeste 22 Noroeste 0 -- -- 67
2019-12-14 20:00:00 13.6 9 Norte 29 Noroeste 0 -- -- 67
2019-12-14 19:00:00 14.5 13 Noroeste 35 Noroeste 0 -- -- 64
2019-12-14 18:00:00 15.1 11 Noroeste 29 Noroeste 0 -- -- 64
2019-12-14 17:00:00 16.4 14 Noroeste 42 Norte 0 -- -- 61
2019-12-14 16:00:00 17.3 23 Noroeste 42 Noroeste 0 -- -- 57
2019-12-14 15:00:00 17.4 25 Noroeste 45 Noroeste 0 -- -- 57
2019-12-14 14:00:00 17.6 25 Noroeste 43 Noroeste 0 -- -- 58
2019-12-14 13:00:00 17.7 22 Noroeste 36 Norte 0 -- -- 59
2019-12-14 12:00:00 17.1 17 Noroeste 33 Noroeste 0 -- -- 62
2019-12-14 11:00:00 16.1 18 Noroeste 40 Noroeste 0 -- -- 65
2019-12-14 10:00:00 14.8 11 Noroeste 20 Noroeste 0 -- -- 72
2019-12-14 09:00:00 12.5 5 Noroeste 17 Noroeste 0 -- -- 81
2019-12-14 08:00:00 12.7 9 Noroeste 19 Noroeste 0 -- -- 82
2019-12-14 07:00:00 12.6 4 Noroeste 12 Oeste 0 -- -- 84
2019-12-14 06:00:00 13.2 10 Oeste 21 Oeste 0 -- -- 85
2019-12-14 05:00:00 13.4 12 Oeste 21 Oeste 0 -- -- 84
2019-12-14 04:00:00 13.9 12 Oeste 21 Oeste 0 -- -- 83
2019-12-14 03:00:00 14.2 10 Noroeste 23 Noroeste 0 -- -- 83
2019-12-14 02:00:00 14.7 13 Noroeste 24 Oeste 0 -- -- 81
2019-12-14 01:00:00 15.6 13 Noroeste 25 Noroeste 0 -- -- 78
2019-12-14 00:00:00 15.3 14 Noroeste 23 Noroeste 0 -- -- 80
2019-12-13 23:00:00 15 12 Noroeste 26 Noroeste 0 -- -- 80
2019-12-13 22:00:00 15.9 18 Noroeste 33 Noroeste 0 -- -- 77
2019-12-13 21:00:00 15.8 14 Noroeste 23 Noroeste 0 -- -- 78
2019-12-13 20:00:00 15.3 3 Noroeste 24 Oeste 0 -- -- 79
2019-12-13 19:00:00 15.7 9 Noroeste 36 Oeste 0 -- -- 76
2019-12-13 18:00:00 16.5 17 Noroeste 33 Noroeste 0 -- -- 73
2019-12-13 17:00:00 17 18 Noroeste 35 Noroeste 0 -- -- 71
2019-12-13 16:00:00 17.6 17 Oeste 35 Oeste 0 -- -- 72
2019-12-13 15:00:00 17.3 14 Noroeste 33 Oeste 0 -- -- 75
2019-12-13 14:00:00 17.8 21 Oeste 32 Oeste 0 -- -- 72
2019-12-13 13:00:00 17.1 16 Oeste 27 Noroeste 0 -- -- 75
2019-12-13 12:00:00 16.1 12 Noroeste 27 Noroeste 0 -- -- 80
2019-12-13 11:00:00 16.2 11 Oeste 24 Oeste 0 -- -- 78
2019-12-13 10:00:00 14.9 11 Oeste 24 Noroeste 0 -- -- 88
2019-12-13 09:00:00 14.9 12 Oeste 21 Oeste 0 -- -- 89
2019-12-13 08:00:00 15.1 11 Oeste 23 Oeste 0 -- -- 84
2019-12-13 07:00:00 14.5 8 Oeste 20 Noroeste 0 -- -- 91
2019-12-13 06:00:00 14.5 12 Noroeste 24 Oeste 0 -- -- 92
2019-12-13 05:00:00 14.2 12 Oeste 24 Oeste 0.2 -- -- 94
2019-12-13 04:00:00 14 10 Oeste 20 Oeste 0.4 -- -- 94
2019-12-13 03:00:00 13.8 9 Noroeste 27 Noroeste 0.4 -- -- 92
2019-12-13 02:00:00 14.4 10 Oeste 33 Oeste 0 -- -- 84
2019-12-13 01:00:00 14.8 18 Oeste 37 Noroeste 0 -- -- 79
2019-12-13 00:00:00 15 19 Oeste 36 Oeste 0 -- -- 76
2019-12-12 23:00:00 14.9 19 Oeste 32 Oeste 0 -- -- 76
2019-12-12 22:00:00 14.7 14 Oeste 33 Noroeste 0 -- -- 76
2019-12-12 21:00:00 14.7 16 Oeste 29 Oeste 0 -- -- 74
2019-12-12 20:00:00 14.5 14 Oeste 29 Noroeste 0 -- -- 73
2019-12-12 19:00:00 14.4 17 Oeste 34 Oeste 0 -- -- 69
2019-12-12 18:00:00 14.3 16 Oeste 33 Oeste 0 -- -- 68
2019-12-12 17:00:00 14.9 15 Noroeste 41 Noroeste 0 -- -- 61
2019-12-12 16:00:00 15.6 14 Noroeste 37 Noroeste 0 -- -- 60
2019-12-12 15:00:00 15.6 22 Noroeste 40 Noroeste 0 -- -- 59
2019-12-12 14:00:00 15.3 27 Noroeste 51 Noroeste 0 -- -- 60
2019-12-12 13:00:00 15.1 26 Noroeste 50 Noroeste 0 -- -- 58
2019-12-12 12:00:00 14.7 19 Noroeste 37 Noroeste 0 -- -- 60
2019-12-12 11:00:00 13.3 15 Oeste 28 Noroeste 0 -- -- 58
2019-12-12 10:00:00 11.5 10 Noroeste 22 Noroeste 0 -- -- 59
2019-12-12 09:00:00 10.5 10 Noroeste 24 Noroeste 0 -- -- 62
2019-12-12 08:00:00 9.8 6 Noroeste 18 Oeste 0 -- -- 64
2019-12-12 07:00:00 10.2 9 Noroeste 27 Noroeste 0 -- -- 62
2019-12-12 06:00:00 9.9 13 Noroeste 21 Noroeste 0 -- -- 66
2019-12-12 05:00:00 9.7 11 Noroeste 29 Noroeste 0 -- -- 68
2019-12-12 04:00:00 8.7 7 Norte 12 Norte 0 -- -- 74
2019-12-12 03:00:00 8.2 6 Noroeste 14 Noroeste 0 -- -- 79
2019-12-12 02:00:00 7.9 5 Noroeste 14 Noroeste 0 -- -- 81
2019-12-12 01:00:00 9.2 5 Noroeste 12 Sudoeste 0 -- -- 77
2019-12-12 00:00:00 10.7 2 Este 10 Sudeste 0 -- -- 77
2019-12-11 23:00:00 12.2 3 Sudeste 22 Noroeste 0 -- -- 79
2019-12-11 22:00:00 12.7 6 Noroeste 21 Noroeste 0 -- -- 81
2019-12-11 21:00:00 14.1 14 Noroeste 27 Noroeste 0 -- -- 77
2019-12-11 20:00:00 14.5 10 Noroeste 21 Noroeste 0 -- -- 78
2019-12-11 19:00:00 15.4 10 Noroeste 22 Noroeste 0 -- -- 76
2019-12-11 18:00:00 16.2 12 Noroeste 32 Noroeste 0 -- -- 70
2019-12-11 17:00:00 17.4 18 Norte 32 Noroeste 0 -- -- 60
2019-12-11 16:00:00 18.7 14 Noroeste 30 Noroeste 0 -- -- 53
2019-12-11 15:00:00 17.5 14 Oeste 31 Oeste 0 -- -- 50
2019-12-11 14:00:00 18.6 18 Oeste 31 Oeste 0 -- -- 36
2019-12-11 13:00:00 18.4 16 Oeste 33 Oeste 0 -- -- 49
2019-12-11 12:00:00 17.7 19 Oeste 31 Oeste 0 -- -- 49
2019-12-11 11:00:00 16.3 12 Oeste 26 Oeste 0 -- -- 62
2019-12-11 10:00:00 12.1 4 Este 11 Este 0 -- -- 79
2019-12-11 09:00:00 7.1 9 Nordeste 12 Nordeste 0 -- -- 89
2019-12-11 08:00:00 10.6 7 Oeste 17 Oeste 0 -- -- 81
2019-12-11 07:00:00 10.1 4 Norte 15 Noroeste 0 -- -- 75
2019-12-11 06:00:00 9.8 8 Noroeste 14 Noroeste 0 -- -- 79
2019-12-11 05:00:00 8.1 2 Nordeste 11 Noroeste 0 -- -- 86
2019-12-11 04:00:00 7.9 0 Calma 14 Noroeste 0 -- -- 86
2019-12-11 03:00:00 7 5 Noroeste 12 Oeste 0 -- -- 88
2019-12-11 02:00:00 6 3 Nordeste 10 Nordeste 0 -- -- 86
2019-12-11 01:00:00 6 6 Este 11 Este 0 -- -- 87
2019-12-11 00:00:00 6.3 7 Este 10 Nordeste 0 -- -- 88
2019-12-10 23:00:00 7.3 5 Este 9 Nordeste 0 -- -- 84
2019-12-10 22:00:00 8.2 7 Este 10 Nordeste 0 -- -- 85
2019-12-10 21:00:00 9.6 7 Nordeste 10 Nordeste 0 -- -- 85
2019-12-10 20:00:00 12.7 0 Calma 11 Oeste 0 -- -- 78
2019-12-10 19:00:00 14.9 5 Noroeste 9 Noroeste 0 -- -- 71
2019-12-10 18:00:00 17 5 Noroeste 23 Oeste 0 -- -- 62
2019-12-10 17:00:00 19.5 13 Oeste 27 Oeste 0 -- -- 56
2019-12-10 16:00:00 20.6 13 Oeste 24 Oeste 0 -- -- 55
2019-12-10 15:00:00 20.5 14 Oeste 24 Oeste 0 -- -- 55
2019-12-10 14:00:00 20.4 2 Este 5 Este 0 -- -- 46
2019-12-10 13:00:00 17.7 2 Oeste 4 Norte 0 -- -- 49
2019-12-10 12:00:00 14.5 3 Noroeste 5 Norte 0 -- -- 65
2019-12-10 11:00:00 10.5 0 Calma 4 Este 0 -- -- 75
2019-12-10 10:00:00 6.7 0 Calma 4 Este 0 -- -- 95
2019-12-10 09:00:00 2.3 0 Calma 8 Este 0 -- -- 98
2019-12-10 08:00:00 2.7 3 Norte 7 Nordeste 0 -- -- 98
2019-12-10 07:00:00 3.6 4 Nordeste 8 Este 0 -- -- 98
2019-12-10 06:00:00 3.9 5 Este 8 Este 0 -- -- 97
2019-12-10 05:00:00 4.6 2 Nordeste 6 Este 0 -- -- 97
2019-12-10 04:00:00 5.4 3 Nordeste 6 Nordeste 0 -- -- 96
2019-12-10 03:00:00 6.2 6 Nordeste 8 Este 0 -- -- 96
2019-12-10 02:00:00 7.2 5 Este 9 Nordeste 0 -- -- 95
2019-12-10 01:00:00 8.4 3 Nordeste 6 Nordeste 0 -- -- 94
2019-12-10 00:00:00 9.3 4 Este 6 Este 0 -- -- 93
2019-12-09 23:00:00 10.3 4 Nordeste 9 Nordeste 0 -- -- 92
2019-12-09 22:00:00 10.2 5 Nordeste 8 Este 0 -- -- 91
2019-12-09 21:00:00 11.4 4 Este 8 Este 0 -- -- 88
2019-12-09 20:00:00 13.8 3 Oeste 13 Oeste 0 -- -- 81
2019-12-09 19:00:00 15.5 5 Noroeste 10 Norte 0 -- -- 77
2019-12-09 18:00:00 17.8 5 Noroeste 13 Noroeste 0 -- -- 70
2019-12-09 17:00:00 18.9 6 Oeste 20 Noroeste 0 -- -- 68
2019-12-09 16:00:00 20 10 Noroeste 27 Noroeste 0 -- -- 63
2019-12-09 15:00:00 20.3 14 Noroeste 24 Noroeste 0 -- -- 64
2019-12-09 14:00:00 20.9 11 Norte 26 Norte 0 -- -- 60
2019-12-09 13:00:00 21.3 8 Noroeste 21 Norte 0 -- -- 60
2019-12-09 12:00:00 19.6 13 Norte 30 Norte 0 -- -- 63
2019-12-09 11:00:00 18.3 15 Norte 26 Norte 0 -- -- 68
2019-12-09 10:00:00 16 10 Noroeste 22 Norte 0 -- -- 78
2019-12-09 09:00:00 11.8 3 Sudeste 9 Sur 0 -- -- 92
2019-12-09 08:00:00 10.1 4 Sudoeste 9 Noroeste 0 -- -- 93
2019-12-09 07:00:00 10.8 2 Este 6 Este 0 -- -- 92
2019-12-09 06:00:00 11.3 4 Nordeste 14 Noroeste 0 -- -- 92
2019-12-09 05:00:00 10.7 6 Noroeste 12 Noroeste 0 -- -- 93
2019-12-09 04:00:00 10.3 4 Nordeste 8 Nordeste 0 -- -- 89
2019-12-09 03:00:00 12.7 3 Este 17 Noroeste 0 -- -- 80
2019-12-09 02:00:00 14.2 6 Noroeste 14 Noroeste 0 -- -- 76
2019-12-09 01:00:00 14.2 5 Noroeste 22 Norte 0 -- -- 73
2019-12-09 00:00:00 15.1 16 Norte 29 Norte 0 -- -- 68
2019-12-08 23:00:00 11.4 3 Nordeste 7 Nordeste 0 -- -- 85
2019-12-08 22:00:00 13.1 4 Este 12 Noroeste 0 -- -- 78
2019-12-08 21:00:00 14.1 8 Norte 14 Norte 0 -- -- 74
2019-12-08 20:00:00 14.3 5 Norte 10 Sudoeste 0 -- -- 77
2019-12-08 19:00:00 15.8 8 Oeste 23 Oeste 0 -- -- 72
2019-12-08 18:00:00 17.4 12 Oeste 24 Oeste 0 -- -- 65
2019-12-08 17:00:00 19.6 9 Oeste 24 Oeste 0 -- -- 61
2019-12-08 16:00:00 19.9 14 Oeste 30 Oeste 0 -- -- 58
2019-12-08 15:00:00 20.1 17 Oeste 27 Oeste 0 -- -- 47
2019-12-08 14:00:00 19.8 14 Oeste 26 Oeste 0 -- -- 55
2019-12-08 13:00:00 19.2 13 Oeste 21 Oeste 0 -- -- 60
2019-12-08 12:00:00 15.6 2 Sur 5 Oeste 0 -- -- 72
2019-12-08 11:00:00 11.7 0 Calma 5 Noroeste 0 -- -- 89
2019-12-08 10:00:00 8 0 Calma 5 Este 0 -- -- 100
2019-12-08 09:00:00 4.1 5 Este 6 Este 0 -- -- 100
2019-12-08 08:00:00 3.9 2 Nordeste 4 Este 0 -- -- 99
2019-12-08 07:00:00 4.2 3 Nordeste 6 Nordeste 0 -- -- 99
2019-12-08 06:00:00 4.5 0 Calma 6 Este 0 -- -- 99
2019-12-08 05:00:00 4.8 3 Este 5 Nordeste 0 -- -- 98
2019-12-08 04:00:00 5.3 2 Norte 5 Este 0 -- -- 99
2019-12-08 03:00:00 5.8 3 Este 6 Nordeste 0 -- -- 98
2019-12-08 02:00:00 6.8 0 Calma 6 Nordeste 0 -- -- 98
2019-12-08 01:00:00 7.1 4 Nordeste 5 Nordeste 0 -- -- 98
2019-12-08 00:00:00 7.7 3 Nordeste 6 Nordeste 0 -- -- 97
2019-12-07 23:00:00 8.4 4 Este 6 Este 0 -- -- 96
2019-12-07 22:00:00 9 4 Nordeste 6 Nordeste 0 -- -- 95
2019-12-07 21:00:00 10.2 4 Nordeste 5 Nordeste 0 -- -- 93
2019-12-07 20:00:00 11.8 2 Nordeste 8 Nordeste 0 -- -- 90
2019-12-07 19:00:00 13.6 4 Nordeste 8 Sudeste 0 -- -- 85
2019-12-07 18:00:00 16.3 3 Sudeste 12 Sudeste 0 -- -- 77
2019-12-07 17:00:00 17.6 9 Sudeste 17 Sudeste 0 -- -- 68
2019-12-07 16:00:00 18.4 9 Sudeste 20 Sudeste 0 -- -- 63
2019-12-07 15:00:00 19.1 8 Sudeste 23 Sudeste 0 -- -- 64
2019-12-07 14:00:00 19.4 10 Sur 23 Sudeste 0 -- -- 59
2019-12-07 13:00:00 18.9 6 Sur 18 Sur 0 -- -- 64
2019-12-07 12:00:00 17.3 3 Sudoeste 7 Sudoeste 0 -- -- 72
2019-12-07 11:00:00 13.7 0 Calma 3 Noroeste 0 -- -- 84
2019-12-07 10:00:00 10.4 2 Norte 3 Noroeste 0 -- -- 96
2019-12-07 09:00:00 9.7 2 Este 4 Sudeste 0 -- -- 97
2019-12-07 08:00:00 9.8 0 Calma 4 Norte 0 -- -- 96
2019-12-07 07:00:00 9.8 0 Calma 2 Este 0 -- -- 97
2019-12-07 06:00:00 9.5 2 Nordeste 4 Norte 0 -- -- 97
2019-12-07 05:00:00 9.3 0 Calma 3 Este 0 -- -- 95
2019-12-07 04:00:00 9.4 0 Calma 4 Norte 0 -- -- 95
2019-12-07 03:00:00 9.4 0 Calma 7 Noroeste 0 -- -- 95
2019-12-07 02:00:00 9.5 4 Norte 9 Este 0 -- -- 96
2019-12-07 01:00:00 9.2 0 Calma 6 Noroeste 0 -- -- 95
2019-12-07 00:00:00 9.3 6 Noroeste 10 Noroeste 0 -- -- 94
2019-12-06 23:00:00 10.1 2 Noroeste 6 Nordeste 0 -- -- 90
2019-12-06 22:00:00 11.4 5 Noroeste 30 Este 0 -- -- 85
2019-12-06 21:00:00 14.4 7 Este 18 Sudeste 0 -- -- 79
2019-12-06 20:00:00 14.9 9 Sudeste 26 Sudeste 0 -- -- 76
2019-12-06 19:00:00 15.1 13 Sudeste 28 Sudeste 0 -- -- 74
2019-12-06 18:00:00 16.3 15 Sudeste 31 Sudeste 0 -- -- 67
2019-12-06 17:00:00 17.6 18 Sudeste 37 Sudeste 0 -- -- 62
2019-12-06 16:00:00 17.8 23 Este 42 Sudeste 0 -- -- 64
2019-12-06 15:00:00 18.1 22 Sudeste 37 Sudeste 0 -- -- 64
2019-12-06 14:00:00 18.3 23 Sudeste 42 Sudeste 0 -- -- 64
2019-12-06 13:00:00 18.3 20 Este 43 Este 0 -- -- 64
2019-12-06 12:00:00 17.9 23 Este 45 Este 0 -- -- 66
2019-12-06 11:00:00 17.1 19 Este 32 Este 0 -- -- 70
2019-12-06 10:00:00 10.7 5 Sudeste 13 Sudeste 0 -- -- 98
2019-12-06 09:00:00 8.4 0 Calma 5 Noroeste 0 -- -- 98
2019-12-06 08:00:00 8.4 2 Sudeste 6 Noroeste 0 -- -- 97
2019-12-06 07:00:00 8.9 0 Calma 6 Noroeste 0 -- -- 97
2019-12-06 06:00:00 9.2 2 Norte 5 Noroeste 0 -- -- 97
2019-12-06 05:00:00 9.7 2 Noroeste 5 Noroeste 0 -- -- 95
2019-12-06 04:00:00 10.5 3 Norte 5 Noroeste 0 -- -- 94
2019-12-06 03:00:00 10.5 0 Calma 5 Norte 0 -- -- 93
2019-12-06 02:00:00 11.7 4 Sudeste 14 Sudeste 0 -- -- 89
2019-12-06 01:00:00 13.3 6 Sudeste 14 Sudeste 0 -- -- 82
2019-12-06 00:00:00 13.7 7 Sudeste 15 Este 0 -- -- 82
2019-12-05 23:00:00 14.2 6 Este 25 Sudeste 0 -- -- 80
2019-12-05 22:00:00 14.9 11 Este 30 Este 0 -- -- 74
2019-12-05 21:00:00 14.9 8 Sudeste 26 Este 0 -- -- 72
2019-12-05 20:00:00 14.8 13 Sudeste 29 Este 0 -- -- 75
2019-12-05 19:00:00 14.7 18 Sudeste 28 Sudeste 0 -- -- 77
2019-12-05 18:00:00 15 14 Sudeste 34 Sudeste 0 -- -- 64
2019-12-05 17:00:00 15.3 11 Sudeste 23 Sudeste 0 -- -- 70
2019-12-05 16:00:00 15.5 16 Este 29 Sudeste 0 -- -- 65
2019-12-05 15:00:00 15.2 15 Sudeste 30 Sudeste 0 -- -- 70
2019-12-05 14:00:00 15.6 14 Sudeste 25 Sudeste 0 -- -- 64
2019-12-05 13:00:00 15.4 8 Sudeste 15 Sur 0 -- -- 63
2019-12-05 12:00:00 12.7 2 Oeste 6 Sur 0 -- -- 70
2019-12-05 11:00:00 9.7 0 Calma 6 Sur 0 -- -- 84
2019-12-05 10:00:00 7.4 0 Calma 7 Este 0 -- -- 91
2019-12-05 09:00:00 6.5 3 Este 10 Sur 0 -- -- 93
2019-12-05 08:00:00 5.1 3 Norte 8 Norte 0 -- -- 93
2019-12-05 07:00:00 5.2 4 Nordeste 8 Nordeste 0 -- -- 93
2019-12-05 06:00:00 6.3 6 Nordeste 10 Nordeste 0 -- -- 92
2019-12-05 05:00:00 7.9 3 Nordeste 8 Nordeste 0 -- -- 89
2019-12-05 04:00:00 9.3 2 Noroeste 9 Nordeste 0 -- -- 87
2019-12-05 03:00:00 9.2 2 Sudoeste 8 Nordeste 0 -- -- 88
2019-12-05 02:00:00 9.1 3 Este 5 Sudeste 0 -- -- 88
2019-12-05 01:00:00 9 3 Este 5 Este 0 -- -- 87
2019-12-05 00:00:00 8.9 0 Calma 7 Nordeste 0 -- -- 88
2019-12-04 23:00:00 8.7 4 Nordeste 8 Nordeste 0 -- -- 87
2019-12-04 22:00:00 8.6 4 Nordeste 6 Nordeste 0 -- -- 87
2019-12-04 21:00:00 8.8 2 Este 5 Nordeste 0 -- -- 87
2019-12-04 20:00:00 9.1 2 Nordeste 8 Oeste 0 -- -- 83
2019-12-04 19:00:00 11.3 5 Oeste 9 Noroeste 0 -- -- 66
2019-12-04 18:00:00 12.9 0 Calma 30 Oeste 0 -- -- 62
2019-12-04 17:00:00 15.1 13 Oeste 33 Oeste 0 -- -- 55
2019-12-04 16:00:00 15.8 19 Oeste 36 Oeste 0 -- -- 55
2019-12-04 15:00:00 16.6 18 Noroeste 37 Oeste 0 -- -- 55
2019-12-04 14:00:00 16.9 21 Oeste 36 Oeste 0 -- -- 55
2019-12-04 13:00:00 16.4 10 Norte 23 Oeste 0 -- -- 64
2019-12-04 12:00:00 15.8 12 Noroeste 30 Noroeste 0 -- -- 68
2019-12-04 11:00:00 14.9 12 Oeste 23 Oeste 0 -- -- 75
2019-12-04 10:00:00 11.5 3 Este 8 Nordeste 0 -- -- 95
2019-12-04 09:00:00 9.3 4 Nordeste 8 Nordeste 0 -- -- 99
2019-12-04 08:00:00 9.6 0 Calma 9 Nordeste 0 -- -- 97
2019-12-04 07:00:00 10 3 Este 6 Este 0 -- -- 98
2019-12-04 06:00:00 9.8 4 Este 7 Nordeste 0 -- -- 98
2019-12-04 05:00:00 8.9 5 Nordeste 7 Nordeste 0 -- -- 99
2019-12-04 04:00:00 8.9 2 Este 8 Este 0 -- -- 97
2019-12-04 03:00:00 9.5 4 Este 8 Este 0 -- -- 97
2019-12-04 02:00:00 10.1 4 Nordeste 8 Nordeste 0 -- -- 98
2019-12-04 01:00:00 10.3 5 Nordeste 8 Nordeste 0 -- -- 98
2019-12-04 00:00:00 11 2 Nordeste 6 Nordeste 0 -- -- 97
2019-12-03 23:00:00 11.1 5 Este 7 Este 0 -- -- 97
2019-12-03 22:00:00 12.2 0 Calma 7 Nordeste 0 -- -- 95
2019-12-03 21:00:00 12.5 4 Nordeste 6 Nordeste 0 -- -- 95
2019-12-03 20:00:00 13.2 4 Este 6 Sur 0 -- -- 93
2019-12-03 19:00:00 14.4 2 Sudeste 4 Este 0 -- -- 90
2019-12-03 18:00:00 15.6 2 Oeste 4 Oeste 0 -- -- 80
2019-12-03 17:00:00 16 0 Calma 3 Noroeste 0 -- -- 79
2019-12-03 16:00:00 16.1 0 Calma 8 Sudeste 0 -- -- 75
2019-12-03 15:00:00 16.2 7 Sudeste 14 Sudeste 0 -- -- 74
2019-12-03 14:00:00 16.1 4 Sudeste 17 Sudeste 0 -- -- 71
2019-12-03 13:00:00 15.5 3 Sur 6 Sudeste 0 -- -- 79
2019-12-03 12:00:00 14.6 3 Sur 5 Sur 0 -- -- 85
2019-12-03 11:00:00 13.2 2 Este 6 Noroeste 0 -- -- 92
2019-12-03 10:00:00 12.1 2 Norte 8 Este 0 -- -- 97
2019-12-03 09:00:00 10.5 3 Este 4 Este 0 -- -- 98
2019-12-03 08:00:00 10.8 4 Nordeste 8 Norte 0 -- -- 99
2019-12-03 07:00:00 10.9 0 Calma 5 Este 0.2 -- -- 98
2019-12-03 06:00:00 10.9 0 Calma 6 Noroeste 0 -- -- 98
2019-12-03 05:00:00 10.8 3 Nordeste 5 Norte 0 -- -- 98
2019-12-03 04:00:00 11.3 0 Calma 6 Norte 0 -- -- 96
2019-12-03 03:00:00 12 3 Nordeste 14 Este 0 -- -- 95
2019-12-03 02:00:00 13.4 7 Este 22 Este 0.2 -- -- 90
2019-12-03 01:00:00 13.3 6 Este 15 Este 0 -- -- 92
2019-12-03 00:00:00 13.4 9 Este 23 Este 0.2 -- -- 91
2019-12-02 23:00:00 13.3 12 Este 31 Este 0.4 -- -- 90
2019-12-02 22:00:00 14 18 Este 32 Este 0 -- -- 79
2019-12-02 21:00:00 13.7 19 Este 32 Este 0 -- -- 86
2019-12-02 20:00:00 12.8 8 Este 21 Este 1.2 -- -- 93
2019-12-02 19:00:00 11.6 3 Norte 6 Noroeste 0.4 -- -- 97
2019-12-02 18:00:00 11.8 3 Nordeste 4 Nordeste 0 -- -- 96
2019-12-02 17:00:00 11.9 0 Calma 8 Noroeste 0.2 -- -- 92
2019-12-02 16:00:00 12 4 Noroeste 17 Este 1.8 -- -- 94
2019-12-02 15:00:00 12.4 14 Este 38 Este 1.2 -- -- 89
2019-12-02 14:00:00 15 15 Este 29 Este 0 -- -- 77
2019-12-02 13:00:00 14.2 10 Sudeste 17 Este 0.2 -- -- 77
2019-12-02 12:00:00 12.4 4 Noroeste 9 Oeste 0 -- -- 97
2019-12-02 11:00:00 11.3 3 Noroeste 6 Sur 0 -- -- 99
2019-12-02 10:00:00 10.4 0 Calma 3 Sudoeste 0 -- -- 100
2019-12-02 09:00:00 9.6 0 Calma 4 Nordeste 0 -- -- 100
2019-12-02 08:00:00 8.9 0 Calma 5 Norte 0 -- -- 100
2019-12-02 07:00:00 8.8 0 Calma 4 Nordeste 0 -- -- 100
2019-12-02 06:00:00 8.2 2 Norte 7 Nordeste 0 -- -- 99
2019-12-02 05:00:00 8.4 0 Calma 6 Nordeste 0 -- -- 98
2019-12-02 04:00:00 9.3 0 Calma 5 Este 0 -- -- 99
2019-12-02 03:00:00 9.6 0 Calma 9 Oeste 0 -- -- 99
2019-12-02 02:00:00 9.9 4 Este 6 Nordeste 0 -- -- 99
2019-12-02 01:00:00 10.3 3 Este 4 Este 0.2 -- -- 99
2019-12-02 00:00:00 10.3 3 Norte 7 Este 0 -- -- 98
2019-12-01 23:00:00 10.8 0 Calma 8 Nordeste 0 -- -- 98
2019-12-01 22:00:00 11.2 3 Noroeste 7 Oeste 0.2 -- -- 98
2019-12-01 21:00:00 11.6 0 Calma 9 Este 0 -- -- 96
2019-12-01 20:00:00 12.5 4 Este 10 Sudoeste 0 -- -- 95
2019-12-01 19:00:00 13.4 6 Sudoeste 12 Sudoeste 0.6 -- -- 91
2019-12-01 18:00:00 13.9 3 Sur 8 Sur 1 -- -- 93
2019-12-01 17:00:00 14.4 4 Oeste 16 Noroeste 0.2 -- -- 88
2019-12-01 16:00:00 15.7 13 Oeste 28 Sudoeste 0 -- -- 76
2019-12-01 15:00:00 17.6 18 Oeste 33 Sudoeste 0 -- -- 63
2019-12-01 14:00:00 17.6 14 Oeste 24 Oeste 0 -- -- 61
2019-12-01 13:00:00 17.2 14 Noroeste 28 Noroeste 0 -- -- 61
2019-12-01 12:00:00 17 12 Noroeste 30 Noroeste 0 -- -- 63
2019-12-01 11:00:00 16.2 13 Noroeste 27 Oeste 0 -- -- 68
2019-12-01 10:00:00 13.6 0 Calma 6 Noroeste 0 -- -- 86
2019-12-01 09:00:00 11.5 4 Noroeste 8 Noroeste 0 -- -- 93
2019-12-01 08:00:00 12.6 2 Noroeste 9 Oeste 0 -- -- 88
2019-12-01 07:00:00 13.5 3 Noroeste 9 Oeste 0 -- -- 86
2019-12-01 06:00:00 13.9 3 Noroeste 17 Oeste 0 -- -- 85
2019-12-01 05:00:00 14.4 9 Noroeste 19 Oeste 0 -- -- 85
2019-12-01 04:00:00 14.5 4 Noroeste 14 Noroeste 0.2 -- -- 94
2019-12-01 03:00:00 15.7 5 Oeste 14 Oeste 0 -- -- 89
2019-12-01 02:00:00 14.5 6 Oeste 14 Oeste 0 -- -- 93
2019-12-01 01:00:00 12.3 4 Sudeste 5 Sudeste 0 -- -- 91
2019-12-01 00:00:00 11.3 0 Calma 8 Este 0 -- -- 92
2019-11-30 23:00:00 11.5 3 Nordeste 12 Noroeste 0 -- -- 88
2019-11-30 22:00:00 13.5 3 Oeste 16 Noroeste 0 -- -- 80
2019-11-30 21:00:00 15.2 3 Norte 25 Noroeste 0 -- -- 76
2019-11-30 20:00:00 15.1 7 Noroeste 15 Noroeste 0 -- -- 81
2019-11-30 19:00:00 16.4 8 Oeste 15 Oeste 0 -- -- 76
2019-11-30 18:00:00 18.5 6 Noroeste 24 Oeste 0 -- -- 67
2019-11-30 17:00:00 20.5 15 Oeste 27 Oeste 0 -- -- 59
2019-11-30 16:00:00 22 13 Oeste 23 Oeste 0 -- -- 57
2019-11-30 15:00:00 23 4 Sudoeste 11 Sudoeste 0 -- -- 54
2019-11-30 14:00:00 21.5 4 Sur 9 Sur 0 -- -- 55
2019-11-30 13:00:00 19.5 3 Noroeste 9 Oeste 0 -- -- 65
2019-11-30 12:00:00 17.1 2 Oeste 5 Oeste 0 -- -- 68
2019-11-30 11:00:00 14.1 2 Oeste 5 Sudoeste 0 -- -- 80
2019-11-30 10:00:00 10.5 0 Calma 4 Noroeste 0 -- -- 98
2019-11-30 09:00:00 6.7 3 Norte 6 Nordeste 0 -- -- 99
2019-11-30 08:00:00 6.4 3 Sudeste 5 Este 0 -- -- 98
2019-11-30 07:00:00 7 3 Nordeste 5 Nordeste 0 -- -- 98
2019-11-30 06:00:00 7.4 0 Calma 5 Nordeste 0 -- -- 98
2019-11-30 05:00:00 7.6 2 Este 4 Nordeste 0 -- -- 98
2019-11-30 04:00:00 7.9 4 Nordeste 5 Nordeste 0 -- -- 98
2019-11-30 03:00:00 8.4 0 Calma 5 Este 0 -- -- 97
2019-11-30 02:00:00 9 3 Este 6 Este 0 -- -- 96
2019-11-30 01:00:00 9.9 3 Norte 7 Este 0 -- -- 96
2019-11-30 00:00:00 10.3 4 Este 8 Nordeste 0 -- -- 95
2019-11-29 23:00:00 10.5 6 Nordeste 8 Nordeste 0 -- -- 94
2019-11-29 22:00:00 11.4 7 Nordeste 10 Nordeste 0 -- -- 93
2019-11-29 21:00:00 12.4 4 Nordeste 8 Nordeste 0 -- -- 89
2019-11-29 20:00:00 13.9 4 Este 9 Nordeste 0 -- -- 85
2019-11-29 19:00:00 16.9 2 Sudeste 10 Oeste 0 -- -- 76
2019-11-29 18:00:00 20.3 8 Oeste 19 Oeste 0 -- -- 64
2019-11-29 17:00:00 22.6 9 Oeste 23 Oeste 0 -- -- 56
2019-11-29 16:00:00 23.4 11 Oeste 22 Oeste 0 -- -- 55
2019-11-29 15:00:00 23.6 11 Oeste 18 Oeste 0 -- -- 53
2019-11-29 14:00:00 23.6 10 Sudoeste 16 Sudoeste 0 -- -- 51
2019-11-29 13:00:00 22 2 Este 7 Sudeste 0 -- -- 52
2019-11-29 12:00:00 19.7 4 Sudoeste 6 Oeste 0 -- -- 63
2019-11-29 11:00:00 16.4 0 Calma 4 Sur 0 -- -- 77
2019-11-29 10:00:00 10.8 3 Sur 6 Noroeste 0 -- -- 95
2019-11-29 09:00:00 7.1 2 Este 7 Este 0 -- -- 100
2019-11-29 08:00:00 6.5 3 Este 8 Nordeste 0 -- -- 98
2019-11-29 07:00:00 6.8 5 Nordeste 8 Este 0 -- -- 98
2019-11-29 06:00:00 7.2 4 Este 10 Nordeste 0 -- -- 98
2019-11-29 05:00:00 7.5 4 Nordeste 8 Nordeste 0 -- -- 98
2019-11-29 04:00:00 7.7 5 Nordeste 8 Nordeste 0 -- -- 97
2019-11-29 03:00:00 8 0 Calma 8 Nordeste 0 -- -- 97
2019-11-29 02:00:00 8.3 4 Este 8 Este 0 -- -- 96
2019-11-29 01:00:00 8.9 5 Este 10 Este 0 -- -- 97
2019-11-29 00:00:00 9.2 5 Nordeste 9 Nordeste 0 -- -- 96
2019-11-28 23:00:00 9.9 4 Este 8 Este 0 -- -- 93
2019-11-28 22:00:00 11.5 3 Este 9 Nordeste 0 -- -- 89
2019-11-28 21:00:00 12.4 4 Oeste 11 Oeste 0 -- -- 87
2019-11-28 20:00:00 13.7 5 Noroeste 10 Noroeste 0 -- -- 86
2019-11-28 19:00:00 16.1 4 Noroeste 15 Noroeste 0 -- -- 75
2019-11-28 18:00:00 17.9 11 Noroeste 26 Noroeste 0 -- -- 68
2019-11-28 17:00:00 20.1 15 Noroeste 30 Noroeste 0 -- -- 60
2019-11-28 16:00:00 20.5 16 Noroeste 31 Noroeste 0 -- -- 57
2019-11-28 15:00:00 20.8 15 Noroeste 28 Noroeste 0 -- -- 57
2019-11-28 14:00:00 20.9 14 Noroeste 29 Noroeste 0 -- -- 59
2019-11-28 13:00:00 20.2 18 Noroeste 33 Oeste 0 -- -- 58
2019-11-28 12:00:00 19.3 7 Norte 11 Noroeste 0 -- -- 63
2019-11-28 11:00:00 16.8 3 Sudoeste 6 Sudoeste 0 -- -- 78
2019-11-28 10:00:00 12.4 0 Calma 8 Este 0 -- -- 91
2019-11-28 09:00:00 8.9 0 Calma 8 Nordeste 0 -- -- 100
2019-11-28 08:00:00 8.3 3 Nordeste 9 Este 0 -- -- 98
2019-11-28 07:00:00 9.1 3 Este 6 Norte 0 -- -- 99
2019-11-28 06:00:00 9.3 4 Norte 8 Nordeste 0 -- -- 99
2019-11-28 05:00:00 9.4 5 Nordeste 8 Este 0 -- -- 97
2019-11-28 04:00:00 10.4 3 Sudeste 6 Este 0 -- -- 97
2019-11-28 03:00:00 10.1 2 Noroeste 8 Noroeste 0 -- -- 98
2019-11-28 02:00:00 9.5 0 Calma 5 Este 0 -- -- 97
2019-11-28 01:00:00 9.8 4 Este 7 Este 0 -- -- 96
2019-11-28 00:00:00 10.9 2 Sudeste 8 Este 0 -- -- 95
2019-11-27 23:00:00 11.9 4 Este 8 Nordeste 0 -- -- 94
2019-11-27 22:00:00 13.3 3 Noroeste 5 Oeste 0 -- -- 91
2019-11-27 21:00:00 14.1 2 Noroeste 4 Norte 0 -- -- 88
2019-11-27 20:00:00 15.6 2 Norte 15 Oeste 0 -- -- 83
2019-11-27 19:00:00 16.7 9 Oeste 18 Noroeste 0 -- -- 79
2019-11-27 18:00:00 17.9 11 Oeste 22 Oeste 0 -- -- 77
2019-11-27 17:00:00 18.8 13 Oeste 25 Oeste 0 -- -- 72
2019-11-27 16:00:00 19.4 14 Oeste 24 Oeste 0 -- -- 70
2019-11-27 15:00:00 19.5 11 Oeste 22 Oeste 0 -- -- 71
2019-11-27 14:00:00 19.8 12 Noroeste 25 Noroeste 0 -- -- 67
2019-11-27 06:00:00 -- -- -- -- -- -- -- -- --
2019-11-27 05:00:00 15.6 9 Noroeste 16 Oeste 0.2 -- -- 97
2019-11-27 04:00:00 15.7 2 Este 6 Norte 0.2 -- -- 96
2019-11-27 03:00:00 15.9 3 Norte 19 Oeste 0 -- -- 93
2019-11-27 02:00:00 16.4 6 Noroeste 22 Oeste 0 -- -- 88
2019-11-27 01:00:00 17.7 10 Noroeste 18 Noroeste 0 -- -- 81
2019-11-27 00:00:00 17.9 6 Noroeste 17 Oeste 0 -- -- 81
2019-11-26 23:00:00 17.8 10 Noroeste 26 Noroeste 0 -- -- 80
2019-11-26 22:00:00 17.9 11 Noroeste 25 Oeste 0 -- -- 78
2019-11-26 21:00:00 17.4 6 Norte 23 Oeste 0 -- -- 78
2019-11-26 20:00:00 17.5 5 Oeste 21 Oeste 0 -- -- 81
2019-11-26 19:00:00 18.2 9 Oeste 21 Oeste 0 -- -- 78
2019-11-26 18:00:00 18.9 10 Noroeste 29 Oeste 0 -- -- 73
2019-11-26 17:00:00 19.8 4 Noroeste 22 Oeste 0 -- -- 77
2019-11-26 16:00:00 19.5 15 Oeste 30 Oeste 0 -- -- 78
2019-11-26 15:00:00 19.5 14 Oeste 30 Oeste 0 -- -- 81
2019-11-26 14:00:00 20.8 15 Oeste 29 Oeste 0 -- -- 75
2019-11-26 13:00:00 22.2 11 Oeste 24 Oeste 0 -- -- 70
2019-11-26 12:00:00 21 12 Oeste 24 Oeste 0 -- -- 71
2019-11-26 11:00:00 20.5 7 Oeste 15 Sudoeste 0 -- -- 75
2019-11-26 10:00:00 16.9 7 Noroeste 13 Norte 0 -- -- 89
2019-11-26 09:00:00 13.7 4 Noroeste 12 Noroeste 0 -- -- 99
2019-11-26 08:00:00 12.9 3 Noroeste 9 Sudoeste 0 -- -- 100
2019-11-26 07:00:00 11.8 4 Norte 9 Nordeste 0 -- -- 99
2019-11-26 06:00:00 12.4 3 Sur 9 Nordeste 0 -- -- 98
2019-11-26 05:00:00 12.8 5 Nordeste 9 Nordeste 0 -- -- 98
2019-11-26 04:00:00 14.1 2 Este 5 Norte 0 -- -- 98
2019-11-26 03:00:00 13.6 3 Este 9 Nordeste 0 -- -- 98
2019-11-26 02:00:00 14.8 4 Nordeste 12 Nordeste 0 -- -- 97
2019-11-26 01:00:00 16 2 Noroeste 13 Oeste 0 -- -- 97
2019-11-26 00:00:00 15.8 0 Calma 6 Noroeste 0 -- -- 96
2019-11-25 23:00:00 16.4 5 Noroeste 11 Noroeste 0 -- -- 94
2019-11-25 22:00:00 16.3 4 Noroeste 11 Noroeste 0 -- -- 95
2019-11-25 21:00:00 16.2 6 Noroeste 13 Noroeste 0 -- -- 95
2019-11-25 20:00:00 16.3 5 Noroeste 12 Noroeste 0 -- -- 93
2019-11-25 19:00:00 16.5 6 Oeste 14 Oeste 0 -- -- 91
2019-11-25 18:00:00 17.1 8 Oeste 20 Oeste 0 -- -- 89
2019-11-25 17:00:00 17.9 9 Noroeste 19 Noroeste 0 -- -- 84
2019-11-25 16:00:00 17.6 9 Oeste 18 Oeste 0 -- -- 83
2019-11-25 15:00:00 17.7 11 Oeste 30 Noroeste 0 -- -- 83
2019-11-25 14:00:00 18.6 18 Oeste 32 Noroeste 0 -- -- 77
2019-11-25 13:00:00 18.3 15 Oeste 32 Oeste 0 -- -- 78
2019-11-25 12:00:00 17.6 10 Oeste 23 Oeste 0 -- -- 82
2019-11-25 11:00:00 16.5 4 Sur 9 Sur 0 -- -- 87
2019-11-25 10:00:00 13 2 Sur 5 Sur 0 -- -- 95
2019-11-25 09:00:00 10.8 0 Calma 5 Oeste 0 -- -- 96
2019-11-25 08:00:00 10.5 0 Calma 5 Nordeste 0 -- -- 97
2019-11-25 07:00:00 10.6 4 Este 8 Oeste 0 -- -- 97
2019-11-25 06:00:00 10.3 2 Norte 10 Oeste 0 -- -- 96
2019-11-25 05:00:00 10.2 3 Este 12 Norte 0 -- -- 97
2019-11-25 04:00:00 9 2 Norte 6 Noroeste 0 -- -- 96
2019-11-25 03:00:00 9.3 0 Calma 9 Norte 0 -- -- 93
2019-11-25 02:00:00 10 4 Noroeste 13 Noroeste 0 -- -- 94
2019-11-25 01:00:00 9.2 5 Norte 13 Norte 0 -- -- 94
2019-11-25 00:00:00 8.5 8 Norte 12 Norte 0 -- -- 96
2019-11-24 23:00:00 8.1 0 Calma 4 Oeste 0 -- -- 93
2019-11-24 22:00:00 9.2 0 Calma 7 Oeste 0 -- -- 89
2019-11-24 21:00:00 10.4 2 Oeste 11 Norte 0 -- -- 85
2019-11-24 20:00:00 11.4 6 Norte 9 Norte 0 -- -- 82
2019-11-24 19:00:00 13.5 4 Noroeste 14 Oeste 0 -- -- 74
2019-11-24 18:00:00 14.9 10 Noroeste 26 Oeste 0 -- -- 68
2019-11-24 17:00:00 16.4 13 Noroeste 28 Noroeste 0 -- -- 61
2019-11-24 16:00:00 16.8 20 Noroeste 39 Noroeste 0 -- -- 59
2019-11-24 15:00:00 17 17 Noroeste 40 Noroeste 0 -- -- 54
2019-11-24 14:00:00 17.2 14 Noroeste 33 Noroeste 0 -- -- 51
2019-11-24 13:00:00 16.5 18 Noroeste 36 Noroeste 0 -- -- 53
2019-11-24 12:00:00 16.2 18 Noroeste 32 Noroeste 0 -- -- 56
2019-11-24 11:00:00 14.3 12 Oeste 20 Noroeste 0 -- -- 70
2019-11-24 10:00:00 11.7 2 Oeste 7 Nordeste 0 -- -- 87
2019-11-24 09:00:00 6.6 4 Este 9 Nordeste 0 -- -- 99
2019-11-24 08:00:00 5.6 7 Nordeste 9 Nordeste 0 -- -- 98
2019-11-24 07:00:00 5.7 4 Nordeste 10 Nordeste 0 -- -- 98
2019-11-24 06:00:00 5.9 7 Este 11 Nordeste 0 -- -- 97
2019-11-24 05:00:00 6.5 6 Este 8 Nordeste 0 -- -- 96
2019-11-24 04:00:00 7.5 3 Este 6 Sur 0 -- -- 93
2019-11-24 03:00:00 7.8 4 Este 12 Sudoeste 0 -- -- 95
2019-11-24 02:00:00 8.1 3 Sur 7 Sudeste 0 -- -- 94
2019-11-24 01:00:00 8.5 3 Sur 11 Nordeste 0 -- -- 93
2019-11-24 00:00:00 8.7 4 Este 8 Este 0 -- -- 94
2019-11-23 23:00:00 9.2 0 Calma 6 Nordeste 0 -- -- 91
2019-11-23 22:00:00 10.1 3 Nordeste 8 Nordeste 0 -- -- 89
2019-11-23 21:00:00 11.7 5 Norte 15 Oeste 0 -- -- 84
2019-11-23 20:00:00 12.7 5 Noroeste 23 Oeste 0 -- -- 82
2019-11-23 19:00:00 14.3 14 Oeste 23 Oeste 0 -- -- 74
2019-11-23 18:00:00 14.9 9 Oeste 30 Noroeste 0 -- -- 67
2019-11-23 17:00:00 16.2 12 Noroeste 32 Noroeste 0 -- -- 62
2019-11-23 16:00:00 16.3 16 Noroeste 42 Oeste 0 -- -- 61
2019-11-23 15:00:00 16.2 23 Noroeste 44 Noroeste 0 -- -- 62
2019-11-23 14:00:00 16.2 14 Noroeste 37 Noroeste 0 -- -- 63
2019-11-23 13:00:00 16 22 Noroeste 49 Noroeste 0 -- -- 63
2019-11-23 12:00:00 15.6 25 Noroeste 50 Noroeste 0 -- -- 64
2019-11-23 11:00:00 15.8 16 Noroeste 44 Norte 0 -- -- 68
2019-11-23 10:00:00 14.2 21 Noroeste 42 Noroeste 0 -- -- 73
2019-11-23 09:00:00 13.9 21 Noroeste 46 Noroeste 0 -- -- 75
2019-11-23 08:00:00 13.8 22 Noroeste 57 Oeste 0 -- -- 75
2019-11-23 07:00:00 14.1 24 Oeste 54 Oeste 0.6 -- -- 85
2019-11-23 06:00:00 15.1 19 Oeste 37 Oeste 0 -- -- 79
2019-11-23 05:00:00 15 21 Oeste 41 Noroeste 0 -- -- 76
2019-11-23 04:00:00 15.5 21 Oeste 42 Noroeste 0 -- -- 78
2019-11-23 03:00:00 15.6 19 Oeste 36 Oeste 0 -- -- 80
2019-11-23 02:00:00 15.6 19 Oeste 42 Oeste 0 -- -- 81
2019-11-23 01:00:00 16.1 25 Oeste 58 Oeste 0 -- -- 79
2019-11-23 00:00:00 16.1 21 Noroeste 48 Noroeste 0 -- -- 75
2019-11-22 23:00:00 16.2 27 Noroeste 47 Noroeste 0 -- -- 73
2019-11-22 22:00:00 16.2 22 Noroeste 51 Noroeste 0 -- -- 75
2019-11-22 21:00:00 17.5 21 Noroeste 67 Sudoeste 5.4 -- -- 90
2019-11-22 20:00:00 18.3 30 Oeste 63 Oeste 2.8 -- -- 92
2019-11-22 19:00:00 17.8 19 Oeste 54 Sudoeste 5 -- -- 93
2019-11-22 18:00:00 18.9 29 Oeste 69 Oeste 0 -- -- 83
2019-11-22 17:00:00 18.6 28 Oeste 54 Oeste 0.6 -- -- 86
2019-11-22 16:00:00 19.3 20 Oeste 43 Sudoeste 0 -- -- 82
2019-11-22 15:00:00 17.8 23 Oeste 48 Sudoeste 0.4 -- -- 90
2019-11-22 14:00:00 16.6 8 Sur 25 Sur 0.2 -- -- 96
2019-11-22 13:00:00 16.7 8 Sur 22 Sudoeste 0.4 -- -- 96
2019-11-22 12:00:00 16.6 5 Sur 12 Sudoeste 0.6 -- -- 97
2019-11-22 11:00:00 16.3 4 Sudeste 10 Sudoeste 0.6 -- -- 97
2019-11-22 10:00:00 15.9 9 Sudoeste 34 Sudoeste 0.2 -- -- 97
2019-11-22 09:00:00 15.6 15 Sudoeste 31 Sudoeste 7 -- -- 100
2019-11-22 08:00:00 15.1 3 Nordeste 8 Sudeste 2.6 -- -- 100
2019-11-22 07:00:00 14.5 4 Sur 10 Sur 8.8 -- -- 100
2019-11-22 06:00:00 14.3 0 Calma 4 Sudeste 1 -- -- 100
2019-11-22 05:00:00 14 0 Calma 4 Noroeste 1.4 -- -- 100
2019-11-22 04:00:00 14 3 Noroeste 8 Este 0.8 -- -- 100
2019-11-22 03:00:00 13.8 3 Oeste 4 Oeste 1.2 -- -- 100
2019-11-22 02:00:00 13.8 2 Sudeste 4 Sur 0.8 -- -- 100
2019-11-22 01:00:00 13.7 2 Este 4 Noroeste 1 -- -- 100
2019-11-22 00:00:00 13.6 2 Nordeste 4 Este 1.4 -- -- 100
2019-11-21 23:00:00 13.6 0 Calma 4 Sur 0 -- -- 100
2019-11-21 22:00:00 13.6 0 Calma 5 Nordeste 0 -- -- 99
2019-11-21 21:00:00 13.7 0 Calma 4 Nordeste 0 -- -- 99
2019-11-21 20:00:00 14.2 2 Nordeste 7 Nordeste 2.8 -- -- 99
2019-11-21 19:00:00 14.4 4 Este 6 Este 0 -- -- 98
2019-11-21 18:00:00 14.8 0 Calma 6 Sudeste 0.2 -- -- 98
2019-11-21 17:00:00 14.9 3 Sudoeste 9 Sudeste 0.6 -- -- 97
2019-11-21 16:00:00 15 5 Sudeste 10 Sudeste 2.4 -- -- 98
2019-11-21 15:00:00 15.2 0 Calma 8 Sudoeste -- -- -- 98
2019-11-21 14:00:00 15.6 0 Calma 7 Oeste 0.4 -- -- 97
2019-11-21 13:00:00 14.9 3 Noroeste 10 Noroeste 0 -- -- 99
2019-11-21 12:00:00 13.8 3 Este 11 Noroeste 2.4 -- -- 100
2019-11-21 11:00:00 13.3 4 Oeste 6 Noroeste 0.8 -- -- 100
2019-11-21 10:00:00 12.4 0 Calma 15 Sudoeste 13.2 -- -- 100
2019-11-21 09:00:00 11.6 3 Nordeste 12 Noroeste 5.6 -- -- 100
2019-11-21 08:00:00 11.2 3 Noroeste 5 Noroeste 1.8 -- -- 100
2019-11-21 07:00:00 11 3 Noroeste 8 Este 1 -- -- 100
2019-11-21 06:00:00 10.8 3 Norte 6 Sudeste 0 -- -- 100
2019-11-21 05:00:00 10.8 2 Nordeste 10 Oeste 0.2 -- -- 100
2019-11-21 04:00:00 10.7 3 Noroeste 14 Este 1.8 -- -- 100
2019-11-21 03:00:00 10.1 5 Sudoeste 13 Sudoeste 2.6 -- -- 100
2019-11-21 02:00:00 9.5 3 Este 6 Nordeste 1 -- -- 100
2019-11-21 01:00:00 9.3 0 Calma 5 Este 0 -- -- 99
2019-11-21 00:00:00 9.6 3 Este 5 Nordeste 0 -- -- 99
2019-11-20 23:00:00 9.5 3 Este 5 Este 0 -- -- 99
2019-11-20 22:00:00 10 0 Calma 5 Nordeste 0 -- -- 98
2019-11-20 21:00:00 11.1 0 Calma 5 Noroeste 0 -- -- 98
2019-11-20 20:00:00 11.6 0 Calma 5 Este 0 -- -- 97
2019-11-20 19:00:00 11.9 3 Nordeste 12 Este 0 -- -- 96
2019-11-20 18:00:00 12.3 0 Calma 6 Este 0 -- -- 96
2019-11-20 17:00:00 12.5 0 Calma 10 Este 1.2 -- -- 96
2019-11-20 16:00:00 12.8 3 Noroeste 14 Este 0.2 -- -- 94
2019-11-20 15:00:00 12 2 Sur 6 Oeste 0 -- -- 96
2019-11-20 14:00:00 10.5 0 Calma 7 Sudoeste 0 -- -- 96
2019-11-20 13:00:00 9.9 2 Este 6 Oeste 0 -- -- 97
2019-11-20 12:00:00 9 0 Calma 6 Sudoeste 0.8 -- -- 97
2019-11-20 11:00:00 8.3 0 Calma 4 Noroeste 0.2 -- -- 97
2019-11-20 10:00:00 7.2 3 Este 5 Nordeste 0 -- -- 98
2019-11-20 09:00:00 6 0 Calma 4 Este 0 -- -- 99
2019-11-20 08:00:00 4.3 0 Calma 6 Nordeste 0 -- -- 99
2019-11-20 07:00:00 3.5 2 Este 6 Nordeste 0 -- -- 98
2019-11-20 06:00:00 3.1 2 Nordeste 7 Nordeste 0 -- -- 98
2019-11-20 05:00:00 3.4 0 Calma 8 Nordeste 0 -- -- 97
2019-11-20 04:00:00 3.7 4 Nordeste 7 Nordeste 0 -- -- 96
2019-11-20 03:00:00 4.6 3 Este 8 Nordeste 0 -- -- 95
2019-11-20 02:00:00 5.6 5 Nordeste 7 Nordeste 0 -- -- 94
2019-11-20 01:00:00 6.6 4 Nordeste 6 Nordeste 0 -- -- 92
2019-11-20 00:00:00 8.1 3 Nordeste 7 Nordeste 0 -- -- 91
2019-11-19 23:00:00 10 0 Calma 3 Nordeste 0 -- -- 87
2019-11-19 22:00:00 10.9 2 Norte 6 Nordeste 0 -- -- 85
2019-11-19 21:00:00 11.8 5 Nordeste 6 Nordeste 0 -- -- 83
2019-11-19 20:00:00 13.4 4 Oeste 11 Oeste 0 -- -- 78
2019-11-19 19:00:00 13.7 6 Oeste 13 Oeste 0 -- -- 76
2019-11-19 18:00:00 14.4 9 Oeste 23 Oeste 0 -- -- 72
2019-11-19 17:00:00 15.4 17 Oeste 26 Oeste 0 -- -- 68
2019-11-19 16:00:00 17.1 13 Oeste 22 Oeste 0 -- -- 57
2019-11-19 15:00:00 17.9 11 Oeste 22 Oeste 0 -- -- 51
2019-11-19 14:00:00 17.6 11 Oeste 21 Oeste 0 -- -- 57
2019-11-19 13:00:00 17.2 9 Oeste 22 Oeste 0 -- -- 57
2019-11-19 12:00:00 16.1 8 Oeste 14 Sudoeste 0 -- -- 65
2019-11-19 11:00:00 12.8 0 Calma 7 Oeste 0 -- -- 72
2019-11-19 10:00:00 8.1 2 Sur 6 Nordeste 0 -- -- 90
2019-11-19 09:00:00 3.9 3 Este 6 Este 0 -- -- 98
2019-11-19 08:00:00 3.4 3 Este 6 Nordeste 0 -- -- 97
2019-11-19 07:00:00 4.1 2 Nordeste 9 Nordeste 0 -- -- 97
2019-11-19 06:00:00 3.3 8 Este 9 Este 0 -- -- 96
2019-11-19 05:00:00 3.7 4 Este 7 Este 0 -- -- 96
2019-11-19 04:00:00 4.5 3 Este 6 Este 0 -- -- 95
2019-11-19 03:00:00 5.2 3 Nordeste 8 Norte 0 -- -- 96
2019-11-19 02:00:00 4.6 4 Este 7 Este 0 -- -- 94
2019-11-19 01:00:00 5 2 Norte 9 Nordeste 0 -- -- 93
2019-11-19 00:00:00 5.5 5 Este 7 Este 0 -- -- 92
2019-11-18 23:00:00 6.3 2 Sudoeste 8 Norte 0 -- -- 89
2019-11-18 22:00:00 7.2 5 Nordeste 11 Nordeste 0 -- -- 86
2019-11-18 21:00:00 8.8 7 Nordeste 12 Nordeste 0 -- -- 80
2019-11-18 20:00:00 12.1 5 Noroeste 21 Norte 0 -- -- 66
2019-11-18 19:00:00 12.7 8 Nordeste 15 Nordeste 0 -- -- 65
2019-11-18 18:00:00 14.7 3 Norte 21 Norte 0 -- -- 59
2019-11-18 17:00:00 16 9 Noroeste 29 Noroeste 0 -- -- 57
2019-11-18 16:00:00 16.2 15 Oeste 31 Noroeste 0 -- -- 55
2019-11-18 15:00:00 16 15 Noroeste 35 Noroeste 0 -- -- 57
2019-11-18 14:00:00 15.1 21 Noroeste 32 Noroeste 0 -- -- 57
2019-11-18 13:00:00 14.6 17 Oeste 36 Noroeste 0 -- -- 61
2019-11-18 12:00:00 13.6 21 Noroeste 42 Noroeste 0 -- -- 63
2019-11-18 11:00:00 12.8 24 Noroeste 40 Noroeste 0 -- -- 65
2019-11-18 10:00:00 11.8 17 Norte 28 Norte 0 -- -- 70
2019-11-18 09:00:00 10.9 9 Norte 26 Norte 0 -- -- 75
2019-11-18 08:00:00 10.1 11 Norte 33 Noroeste 0 -- -- 79
2019-11-18 07:00:00 10.6 11 Noroeste 39 Noroeste 0 -- -- 76
2019-11-18 06:00:00 11.8 14 Noroeste 42 Noroeste 0 -- -- 73
2019-11-18 05:00:00 14 20 Noroeste 46 Noroeste 0.2 -- -- 78
2019-11-18 04:00:00 14.7 18 Oeste 37 Oeste 0.6 -- -- 90
2019-11-18 03:00:00 15 22 Oeste 50 Oeste 0.4 -- -- 86
2019-11-18 02:00:00 15.5 21 Oeste 36 Oeste 0.8 -- -- 85
2019-11-18 01:00:00 15.9 16 Oeste 35 Noroeste 0 -- -- 83
2019-11-18 00:00:00 15.9 21 Oeste 38 Oeste 0 -- -- 83
2019-11-17 23:00:00 15.8 15 Oeste 32 Oeste 0 -- -- 83
2019-11-17 22:00:00 15.5 11 Oeste 31 Oeste 0.2 -- -- 86
2019-11-17 21:00:00 15.1 7 Oeste 21 Oeste 1.6 -- -- 90
2019-11-17 20:00:00 14.9 4 Oeste 15 Oeste 1.2 -- -- 91
2019-11-17 19:00:00 14.6 6 Noroeste 22 Oeste 1.4 -- -- 92
2019-11-17 18:00:00 14.6 8 Oeste 14 Oeste 0.2 -- -- 92
2019-11-17 17:00:00 14.1 4 Noroeste 12 Noroeste 0 -- -- 94
2019-11-17 16:00:00 13.8 0 Calma 16 Sudoeste 0.2 -- -- 92
2019-11-17 15:00:00 13.9 5 Noroeste 24 Noroeste 0 -- -- 86
2019-11-17 14:00:00 14.4 14 Noroeste 30 Oeste 0 -- -- 76
2019-11-17 13:00:00 13.8 10 Noroeste 30 Noroeste 0 -- -- 79
2019-11-17 12:00:00 13 8 Noroeste 23 Oeste 0 -- -- 74
2019-11-17 11:00:00 10.6 5 Norte 9 Norte 0 -- -- 81
2019-11-17 10:00:00 7.7 2 Noroeste 6 Noroeste 0 -- -- 86
2019-11-17 09:00:00 4.1 0 Calma 7 Nordeste 0 -- -- 98
2019-11-17 08:00:00 1.9 4 Nordeste 8 Este 0 -- -- 95
2019-11-17 07:00:00 1.5 0 Calma 5 Este 0 -- -- 95
2019-11-17 06:00:00 2.3 0 Calma 8 Nordeste 0 -- -- 96
2019-11-17 05:00:00 1.7 4 Nordeste 8 Nordeste 0 -- -- 94
2019-11-17 04:00:00 2.6 2 Nordeste 4 Nordeste 0 -- -- 93
2019-11-17 03:00:00 3.1 3 Nordeste 7 Nordeste 0 -- -- 93
2019-11-17 02:00:00 3.2 3 Nordeste 5 Nordeste 0 -- -- 89
2019-11-17 01:00:00 4.6 3 Noroeste 8 Norte 0 -- -- 86
2019-11-17 00:00:00 5.1 5 Norte 10 Norte 0 -- -- 82
2019-11-16 23:00:00 5.1 4 Nordeste 8 Norte 0 -- -- 81
2019-11-16 22:00:00 6.6 4 Norte 10 Norte 0 -- -- 73
2019-11-16 21:00:00 8.4 6 Norte 13 Noroeste 0 -- -- 66
2019-11-16 20:00:00 9.5 6 Noroeste 14 Noroeste 0 -- -- 63
2019-11-16 19:00:00 10.7 8 Noroeste 17 Noroeste 0 -- -- 56
2019-11-16 18:00:00 13 14 Noroeste 30 Noroeste 0 -- -- 50
2019-11-16 17:00:00 14.6 16 Noroeste 33 Oeste 0 -- -- 47
2019-11-16 16:00:00 15.6 16 Oeste 35 Oeste 0 -- -- 43
2019-11-16 15:00:00 15.9 16 Oeste 31 Noroeste 0 -- -- 41
2019-11-16 14:00:00 15.5 18 Noroeste 35 Noroeste 0 -- -- 41
2019-11-16 13:00:00 15 16 Noroeste 34 Noroeste 0 -- -- 43
2019-11-16 12:00:00 14 21 Noroeste 36 Noroeste 0 -- -- 43
2019-11-16 11:00:00 12.1 12 Oeste 23 Oeste 0 -- -- 54
2019-11-16 10:00:00 9.3 5 Norte 10 Norte 0 -- -- 65
2019-11-16 09:00:00 5.7 4 Norte 13 Norte 0 -- -- 78
2019-11-16 08:00:00 1.4 0 Calma 7 Este 0 -- -- 89
2019-11-16 07:00:00 1.8 2 Este 5 Nordeste 0 -- -- 88
2019-11-16 06:00:00 3.1 3 Oeste 12 Noroeste 0 -- -- 83
2019-11-16 05:00:00 3.8 3 Norte 9 Norte 0 -- -- 80
2019-11-16 04:00:00 4.8 3 Noroeste 9 Noroeste 0 -- -- 75
2019-11-16 03:00:00 5 2 Sudeste 8 Este 0 -- -- 75
2019-11-16 02:00:00 6.4 3 Noroeste 9 Oeste 0 -- -- 71
2019-11-16 01:00:00 8 3 Nordeste 10 Noroeste 0 -- -- 66
2019-11-16 00:00:00 7 2 Sudoeste 6 Sur 0 -- -- 71
2019-11-15 23:00:00 8.2 3 Noroeste 16 Noroeste 0 -- -- 67
2019-11-15 22:00:00 6.6 8 Norte 12 Norte 0 -- -- 75
2019-11-15 21:00:00 7.6 3 Nordeste 8 Nordeste 0 -- -- 71
2019-11-15 20:00:00 10.8 3 Noroeste 29 Oeste 0 -- -- 59
2019-11-15 19:00:00 12.2 17 Noroeste 35 Noroeste 0 -- -- 55
2019-11-15 18:00:00 12.8 13 Oeste 24 Oeste 0 -- -- 52
2019-11-15 17:00:00 14 18 Noroeste 36 Oeste 0 -- -- 47
2019-11-15 16:00:00 14.3 17 Noroeste 38 Oeste 0 -- -- 46
2019-11-15 15:00:00 14.1 17 Noroeste 41 Noroeste 0 -- -- 48
2019-11-15 14:00:00 14.2 24 Noroeste 42 Noroeste 0 -- -- 42
2019-11-15 13:00:00 13.4 21 Noroeste 43 Noroeste 0 -- -- 46
2019-11-15 12:00:00 13.2 22 Noroeste 43 Noroeste 0 -- -- 52
2019-11-15 11:00:00 12.2 14 Noroeste 39 Noroeste 0 -- -- 59
2019-11-15 10:00:00 11.1 22 Noroeste 39 Noroeste 0 -- -- 63
2019-11-15 09:00:00 10.1 5 Norte 24 Norte 0 -- -- 70
2019-11-15 08:00:00 9.5 9 Norte 44 Noroeste 0 -- -- 70
2019-11-15 07:00:00 10 16 Noroeste 34 Noroeste 0 -- -- 68
2019-11-15 06:00:00 10.2 13 Noroeste 32 Oeste 0 -- -- 67
2019-11-15 05:00:00 10.8 17 Noroeste 33 Oeste 0 -- -- 67
2019-11-15 04:00:00 11.1 18 Noroeste 38 Noroeste 0 -- -- 69
2019-11-15 03:00:00 11.6 19 Noroeste 36 Oeste 0 -- -- 73
2019-11-15 02:00:00 11.4 16 Noroeste 31 Noroeste 0 -- -- 74
2019-11-15 01:00:00 11.6 13 Noroeste 34 Noroeste 0 -- -- 73
2019-11-15 00:00:00 11.6 13 Noroeste 31 Noroeste 0 -- -- 74